Accueil
METAR-TAF:

METAR-TAF

Aéroports :

Aéroport de Londres-City

Londres, Angleterre

latitude: 51-30N, longitude: 000-03E, altitude: 5 m

Observation

Le bulletin a été fait il y a 34 minutes, à 17:20 UTC
Vent 4 kt de nord, variant entre ouest/nord-ouest et nord/nord-est
Température 6°C
Humidité 93%
Pression 1029 hPa
Visibilité: 6000 m
Quelques nuages à une hauteur de 700 ft
Nuages fragmentés à une hauteur de 4100 ft

METAR: EGLC 011720Z AUTO 35004KT 300V020 6000 FEW007 BKN041 06/05 Q1029

Heure: 17:54 (17:54 UTC)

Prévision

Le bulletin a été fait il y a 56 minutes, à 16:58 UTC
Prévision valable du 01 à 18 UTC au 01 à 21 UTC
Vent 5 kt de nord
Visibilité 10 km ou plus
Quelques nuages à une hauteur de 4000 ft
Temporairement
du 01 à 18 UTC au 01 à 21 UTC
Visibilité: 7000 m
Probabilité 30%
du 01 à 19 UTC au 01 à 21 UTC
Visibilité: 4000 m
brume

TAF: EGLC 011658Z 0118/0121 01005KT 9999 FEW040 TEMPO 0118/0121 7000 PROB30 0119/0121 4000 BR

Observations et prévisions météorologiques de plus de 4000 aéroports (messages METAR et TAF).

Les stations disponibles sont représentées par des disques jaunes et rouges sur la carte.

Passer la souris dessus pour voir le nom de la station.

Cliquer dessus pour voir les observations et prévisions météorologiques.

Pour changer de carte: cliquez sur les boutons verts avec une croix noire pour zoomer, sur le bouton vert avec un tiret pour effectuer un zoom arrière, ou sur les flèches vertes pour les cartes adjacentes.


METAR-TAF: